Current Weather

Cranfield

Cranfield, United Kingdom (EGTC)

Report from: Saturday, June 22, 2024 9:50 AM BST
Current time: Saturday, June 22, 2024 10:06 AM BST

Nearby weather – Weather history – Daily summaries
Weather forecast

Temperature17.0°C (62.6°F)
Dew point13.0°C (55.4°F)
Winds 9 kts (4.6 m/s, 10.4 mph) West-Northwest (300°)
Visibility6.2 mi. (10 km)
Clouds Few clouds 1,700 ft. (518 m)
Ceiling: Broken clouds 2,400 ft. (732 m)
Altimeter29.85 in.Hg (1011 mB)
Relative humidity77 %
Density altitude520 ft. (159 m)
Flight conditions Marginal Visual Meteorological Conditions
Raw dataEGTC 220850Z 30009KT 9999 FEW017 BKN024 17/13 Q1011
An error has occurred. This application may no longer respond until reloaded. Reload 🗙